createdAt,value
2018-01-28T00:01:40.248Z,20.33
2018-01-28T00:04:07.713Z,20.57
2018-01-28T00:06:35.178Z,20.77
2018-01-28T00:09:02.727Z,21.93
2018-01-28T00:11:30.785Z,21.90
2018-01-28T00:13:58.267Z,19.20
2018-01-28T00:16:26.489Z,20.00
2018-01-28T00:18:53.965Z,20.10
2018-01-28T00:21:21.574Z,19.73
2018-01-28T00:23:49.812Z,20.83
2018-01-28T00:26:17.266Z,20.27
2018-01-28T00:28:44.843Z,20.90
2018-01-28T00:31:12.299Z,24.27
2018-01-28T00:33:42.110Z,19.87
2018-01-28T00:36:09.584Z,21.80
2018-01-28T00:38:37.802Z,22.43
2018-01-28T00:41:05.293Z,23.20
2018-01-28T00:43:32.851Z,22.07
2018-01-28T00:46:02.518Z,23.67
2018-01-28T00:48:29.979Z,21.57
2018-01-28T00:50:57.890Z,22.33
2018-01-28T00:53:25.437Z,20.13
2018-01-28T00:55:52.898Z,19.87
2018-01-28T00:58:20.369Z,20.07
2018-01-28T01:00:48.600Z,18.50
2018-01-28T01:03:16.058Z,20.60
2018-01-28T01:05:43.537Z,17.60
2018-01-28T01:08:11.107Z,17.33
2018-01-28T01:10:38.580Z,21.20
2018-01-28T01:13:06.826Z,18.23
2018-01-28T01:15:34.301Z,15.93
2018-01-28T01:18:01.759Z,17.53
2018-01-28T01:20:29.310Z,14.67
2018-01-28T01:22:56.774Z,15.80
2018-01-28T01:25:24.226Z,17.33
2018-01-28T01:27:52.463Z,17.43
2018-01-28T01:30:19.950Z,20.10
2018-01-28T01:32:47.405Z,22.10
2018-01-28T01:35:15.790Z,20.40
2018-01-28T01:37:43.261Z,21.77
2018-01-28T01:40:11.486Z,21.40
2018-01-28T01:42:38.994Z,21.90
2018-01-28T01:45:07.316Z,22.40
2018-01-28T01:47:35.533Z,21.67
2018-01-28T01:50:03.014Z,21.83
2018-01-28T01:52:31.268Z,23.10
2018-01-28T01:54:58.733Z,23.40
2018-01-28T01:57:26.978Z,25.60
2018-01-28T01:59:54.458Z,25.13
2018-01-28T02:02:22.730Z,25.10
2018-01-28T02:04:50.191Z,25.90
2018-01-28T02:07:17.651Z,26.50
2018-01-28T02:09:45.112Z,25.23
2018-01-28T02:12:13.349Z,27.00
2018-01-28T02:14:40.815Z,26.13
2018-01-28T02:17:08.269Z,27.57
2018-01-28T02:19:35.759Z,25.57
2018-01-28T02:22:03.298Z,28.43
2018-01-28T02:24:30.817Z,30.23
2018-01-28T02:26:58.269Z,28.97
2018-01-28T02:29:25.738Z,31.17
2018-01-28T02:31:53.241Z,28.97
2018-01-28T02:34:21.546Z,27.63
2018-01-28T02:36:49.001Z,28.53
2018-01-28T02:39:16.527Z,27.60
2018-01-28T02:41:45.502Z,27.90
2018-01-28T02:44:12.965Z,30.00
2018-01-28T02:46:40.431Z,31.33
2018-01-28T02:49:07.903Z,27.30
2018-01-28T02:51:36.178Z,29.73
2018-01-28T02:54:03.608Z,30.57
2018-01-28T02:56:31.066Z,30.73
2018-01-28T02:58:58.542Z,31.00
2018-01-28T03:01:26.798Z,29.43
2018-01-28T03:03:54.265Z,30.10
2018-01-28T03:06:21.849Z,27.67
2018-01-28T03:08:50.077Z,32.37
2018-01-28T03:11:17.565Z,30.37
2018-01-28T03:13:45.005Z,28.67
2018-01-28T03:16:12.459Z,28.97
2018-01-28T03:18:40.699Z,31.43
2018-01-28T03:21:08.155Z,27.80
2018-01-28T03:23:35.622Z,26.30
2018-01-28T03:26:03.833Z,29.17
2018-01-28T03:28:31.382Z,28.20
2018-01-28T03:30:58.842Z,24.90
2018-01-28T03:33:26.335Z,26.37
2018-01-28T03:35:54.551Z,23.90
2018-01-28T03:38:22.020Z,21.70
2018-01-28T03:40:49.604Z,24.77
2018-01-28T03:43:17.150Z,20.70
2018-01-28T03:45:44.598Z,17.40
2018-01-28T03:48:12.908Z,18.23
2018-01-28T03:50:41.480Z,16.97
2018-01-28T03:53:08.950Z,16.30
2018-01-28T03:55:37.194Z,14.20
2018-01-28T03:58:04.645Z,12.90
2018-01-28T04:00:32.106Z,15.20
2018-01-28T04:03:00.378Z,13.30
2018-01-28T04:05:27.842Z,13.20
2018-01-28T04:07:55.293Z,12.60
2018-01-28T04:10:23.569Z,11.83
2018-01-28T04:12:51.034Z,12.70
2018-01-28T04:15:18.495Z,11.77
2018-01-28T04:17:47.586Z,10.30
2018-01-28T04:20:15.458Z,10.13
2018-01-28T04:22:43.677Z,8.60
2018-01-28T04:25:11.179Z,8.80
2018-01-28T04:27:38.743Z,10.63
2018-01-28T04:30:06.513Z,8.50
2018-01-28T04:32:35.508Z,7.67
2018-01-28T04:35:03.754Z,8.47
2018-01-28T04:37:31.234Z,9.00
2018-01-28T04:39:58.703Z,7.47
2018-01-28T04:42:26.974Z,7.33
2018-01-28T04:44:55.253Z,7.60
2018-01-28T04:47:23.497Z,7.90
2018-01-28T04:49:51.067Z,8.30
2018-01-28T04:52:18.534Z,7.70
2018-01-28T04:54:46.002Z,8.17
2018-01-28T04:57:14.235Z,8.87
2018-01-28T04:59:41.702Z,7.20
2018-01-28T05:02:09.165Z,7.97
2018-01-28T05:04:36.641Z,6.73
2018-01-28T05:07:04.109Z,7.73
2018-01-28T05:09:32.350Z,7.13
2018-01-28T05:12:00.849Z,7.73
2018-01-28T05:14:29.119Z,7.00
2018-01-28T05:16:56.673Z,6.90
2018-01-28T05:19:24.143Z,7.87
2018-01-28T05:21:51.601Z,8.40
2018-01-28T05:24:20.849Z,7.17
2018-01-28T05:26:48.312Z,8.07
2018-01-28T05:29:15.814Z,6.97
2018-01-28T05:31:44.038Z,6.23
2018-01-28T05:34:11.533Z,6.53
2018-01-28T05:36:39.076Z,6.40
2018-01-28T05:39:06.546Z,7.00
2018-01-28T05:41:35.537Z,6.80
2018-01-28T05:44:02.990Z,8.87
2018-01-28T05:46:30.484Z,9.20
2018-01-28T05:48:58.731Z,8.93
2018-01-28T05:51:26.189Z,8.10
2018-01-28T05:53:55.174Z,8.83
2018-01-28T05:56:22.654Z,8.07
2018-01-28T05:58:50.114Z,8.53
2018-01-28T06:01:18.349Z,8.47
2018-01-28T06:03:45.840Z,9.20
2018-01-28T06:06:14.086Z,7.43
2018-01-28T06:08:42.456Z,6.93
2018-01-28T06:11:09.954Z,7.97
2018-01-28T06:13:38.181Z,6.90
2018-01-28T06:16:05.701Z,6.83
2018-01-28T06:18:33.201Z,7.50
2018-01-28T06:21:00.638Z,6.17
2018-01-28T06:23:28.106Z,6.10
2018-01-28T06:25:55.563Z,6.80
2018-01-28T06:28:23.022Z,5.93
2018-01-28T06:30:50.495Z,6.50
2018-01-28T06:33:17.958Z,6.10
2018-01-28T06:35:45.418Z,5.53
2018-01-28T06:38:12.970Z,6.57
2018-01-28T06:40:40.430Z,5.37
2018-01-28T06:43:08.654Z,6.00
2018-01-28T06:45:36.130Z,6.87
2018-01-28T06:48:03.596Z,5.07
2018-01-28T06:50:31.060Z,5.90
2018-01-28T06:52:58.542Z,4.60
2018-01-28T06:55:25.993Z,5.90
2018-01-28T06:57:53.455Z,5.50
2018-01-28T07:00:20.918Z,4.90
2018-01-28T07:02:48.366Z,6.10
2018-01-28T07:05:15.818Z,5.10
2018-01-28T07:07:43.284Z,4.87
2018-01-28T07:10:10.754Z,5.00
2018-01-28T07:12:38.986Z,4.43
2018-01-28T07:15:06.454Z,4.53
2018-01-28T07:17:35.274Z,4.13
2018-01-28T07:20:03.495Z,4.40
2018-01-28T07:22:30.962Z,4.90
2018-01-28T07:24:59.342Z,3.30
2018-01-28T07:27:26.819Z,4.60
2018-01-28T07:29:54.385Z,5.90
2018-01-28T07:32:22.607Z,4.80
2018-01-28T07:34:51.117Z,5.00
2018-01-28T07:37:18.590Z,4.43
2018-01-28T07:39:46.055Z,4.53
2018-01-28T07:42:14.226Z,3.53
2018-01-28T07:44:41.837Z,3.97
2018-01-28T07:47:10.067Z,4.40
2018-01-28T07:49:37.521Z,3.70
2018-01-28T07:52:05.185Z,4.90
2018-01-28T07:54:32.637Z,4.10
2018-01-28T07:57:00.102Z,4.87
2018-01-28T07:59:27.626Z,3.90
2018-01-28T08:01:55.081Z,5.10
2018-01-28T08:04:23.311Z,4.00
2018-01-28T08:06:50.788Z,3.87
2018-01-28T08:09:18.459Z,3.93
2018-01-28T08:12:00.823Z,4.57
2018-01-28T08:14:30.348Z,4.73
2018-01-28T08:16:57.829Z,5.20
2018-01-28T08:19:26.314Z,4.23
2018-01-28T08:21:53.787Z,5.13
2018-01-28T08:24:21.242Z,5.13
2018-01-28T08:27:02.400Z,5.33
2018-01-28T08:29:33.658Z,4.67
2018-01-28T08:32:01.145Z,4.90
2018-01-28T08:34:28.678Z,4.83
2018-01-28T08:36:56.160Z,5.57
2018-01-28T08:39:23.613Z,4.93
2018-01-28T08:41:51.065Z,6.10
2018-01-28T08:44:18.534Z,5.60
2018-01-28T08:46:45.992Z,5.10
2018-01-28T08:49:13.450Z,5.37
2018-01-28T08:51:41.689Z,4.73
2018-01-28T08:54:09.159Z,5.30
2018-01-28T08:56:36.610Z,5.83
2018-01-28T08:59:04.109Z,4.90
2018-01-28T09:01:32.333Z,4.73
2018-01-28T09:03:59.805Z,5.40
2018-01-28T09:06:27.374Z,4.30
2018-01-28T09:08:55.774Z,5.13
2018-01-28T09:11:23.998Z,4.83
2018-01-28T09:13:51.478Z,4.40
2018-01-28T09:16:18.940Z,5.40
2018-01-28T09:18:46.393Z,5.17
2018-01-28T09:21:13.876Z,5.53
2018-01-28T09:23:42.099Z,4.80
2018-01-28T09:26:09.559Z,5.50
2018-01-28T09:28:37.034Z,5.20
2018-01-28T09:31:04.523Z,5.37
2018-01-28T09:33:32.738Z,4.90
2018-01-28T09:36:00.226Z,4.63
2018-01-28T09:38:27.866Z,4.87
2018-01-28T09:40:55.350Z,4.67
2018-01-28T09:43:23.599Z,5.03
2018-01-28T09:45:51.075Z,6.07
2018-01-28T09:48:18.628Z,5.60
2018-01-28T09:50:46.202Z,4.90
2018-01-28T09:53:15.532Z,7.00
2018-01-28T09:55:43.066Z,7.30
2018-01-28T09:58:10.530Z,5.80
2018-01-28T10:00:37.992Z,6.70
2018-01-28T10:03:06.301Z,4.57
2018-01-28T10:05:34.635Z,6.70
2018-01-28T10:08:03.980Z,5.47
2018-01-28T10:10:31.443Z,5.30
2018-01-28T10:12:58.909Z,5.00
2018-01-28T10:15:26.390Z,5.83
2018-01-28T10:17:53.855Z,5.20
2018-01-28T10:20:21.418Z,6.07
2018-01-28T10:22:48.895Z,8.00
2018-01-28T10:25:17.130Z,5.00
2018-01-28T10:27:44.598Z,5.57
2018-01-28T10:30:12.080Z,4.80
2018-01-28T10:32:40.302Z,5.70
2018-01-28T10:35:07.787Z,5.17
2018-01-28T10:37:35.258Z,5.00
2018-01-28T10:40:03.626Z,5.20
2018-01-28T10:42:31.083Z,5.70
2018-01-28T10:44:58.554Z,4.73
2018-01-28T10:47:26.784Z,4.53
2018-01-28T10:49:54.247Z,4.53
2018-01-28T10:52:23.374Z,5.17
2018-01-28T10:54:50.836Z,5.57
2018-01-28T10:57:18.995Z,5.10
2018-01-28T10:59:46.490Z,5.07
2018-01-28T11:02:13.970Z,4.37
2018-01-28T11:04:41.462Z,5.37
2018-01-28T11:07:08.937Z,4.53
2018-01-28T11:09:37.198Z,4.80
2018-01-28T11:12:04.719Z,5.80
2018-01-28T11:14:32.170Z,5.80
2018-01-28T11:16:59.732Z,6.23
2018-01-28T11:19:27.182Z,4.20
2018-01-28T11:21:54.646Z,6.20
2018-01-28T11:24:22.136Z,5.83
2018-01-28T11:26:49.712Z,4.97
2018-01-28T11:29:17.258Z,4.77
2018-01-28T11:31:44.745Z,5.20
2018-01-28T11:34:12.975Z,6.10
2018-01-28T11:36:42.232Z,4.60
2018-01-28T11:39:09.781Z,6.20
2018-01-28T11:41:37.364Z,5.97
2018-01-28T11:44:04.874Z,4.60
2018-01-28T11:46:32.362Z,5.67
2018-01-28T11:49:00.785Z,4.90
2018-01-28T11:51:31.618Z,5.03
2018-01-28T11:53:59.791Z,5.40
2018-01-28T11:56:27.945Z,5.30
2018-01-28T12:01:28.899Z,4.60
2018-01-28T12:03:57.191Z,4.70
2018-01-28T12:06:24.651Z,4.53
2018-01-28T12:08:52.132Z,4.60
2018-01-28T12:11:20.374Z,5.00
2018-01-28T12:13:47.871Z,4.83
2018-01-28T12:16:15.335Z,3.40
2018-01-28T12:18:43.607Z,5.47
2018-01-28T12:21:11.070Z,4.20
2018-01-28T12:23:39.361Z,4.20
2018-01-28T12:26:06.995Z,4.80
2018-01-28T12:28:34.498Z,4.23
2018-01-28T12:31:02.042Z,3.50
2018-01-28T12:33:29.561Z,4.10
2018-01-28T12:35:57.057Z,4.30
2018-01-28T12:38:24.530Z,3.60
2018-01-28T12:40:52.000Z,4.17
2018-01-28T12:43:19.493Z,3.67
2018-01-28T12:45:46.966Z,4.70
2018-01-28T12:48:15.231Z,4.13
2018-01-28T12:50:42.690Z,4.47
2018-01-28T12:53:10.151Z,3.77
2018-01-28T12:55:37.695Z,3.30
2018-01-28T12:58:05.154Z,4.07
2018-01-28T13:00:32.614Z,4.57
2018-01-28T13:03:00.119Z,3.53
2018-01-28T13:05:28.398Z,4.93
2018-01-28T13:07:55.880Z,3.23
2018-01-28T13:10:23.466Z,3.77
2018-01-28T13:12:51.034Z,3.70
2018-01-28T13:15:19.270Z,3.73
2018-01-28T13:17:47.586Z,3.90
2018-01-28T13:20:15.855Z,4.13
2018-01-28T13:22:43.322Z,5.70
2018-01-28T13:25:11.537Z,4.07
2018-01-28T13:27:39.505Z,4.60
2018-01-28T13:30:07.015Z,3.97
2018-01-28T13:32:35.250Z,5.20
2018-01-28T13:35:02.737Z,4.47
2018-01-28T13:37:30.955Z,4.73
2018-01-28T13:39:58.640Z,5.60
2018-01-28T13:42:26.103Z,6.17
2018-01-28T13:44:53.566Z,4.40
2018-01-28T13:47:21.027Z,4.33
2018-01-28T13:49:48.499Z,5.20
2018-01-28T13:52:15.970Z,4.70
2018-01-28T13:54:44.231Z,6.97
2018-01-28T13:57:12.546Z,6.97
2018-01-28T13:59:40.061Z,5.33
2018-01-28T14:02:07.798Z,5.83
2018-01-28T14:04:35.254Z,5.17
2018-01-28T14:07:02.850Z,6.27
2018-01-28T14:09:30.365Z,4.60
2018-01-28T14:11:58.582Z,5.50
2018-01-28T14:14:26.139Z,4.80
2018-01-28T14:16:53.710Z,4.90
2018-01-28T14:19:21.950Z,4.27
2018-01-28T14:21:49.430Z,4.47
2018-01-28T14:24:17.031Z,4.50
2018-01-28T14:26:44.480Z,4.07
2018-01-28T14:29:12.507Z,4.63
2018-01-28T14:31:39.978Z,4.73
2018-01-28T14:34:07.465Z,5.63
2018-01-28T14:36:35.819Z,3.77
2018-01-28T14:39:03.274Z,5.00
2018-01-28T14:41:30.735Z,4.10
2018-01-28T14:43:59.410Z,5.17
2018-01-28T14:46:26.870Z,4.40
2018-01-28T14:48:55.094Z,3.93
2018-01-28T14:51:23.362Z,4.87
2018-01-28T14:53:50.863Z,5.28
2018-01-28T14:56:18.324Z,4.30
2018-01-28T14:58:48.117Z,4.40
2018-01-28T15:01:15.594Z,4.37
2018-01-28T15:03:43.103Z,5.77
2018-01-28T15:06:10.531Z,9.00
2018-01-28T15:08:38.782Z,4.80
2018-01-28T15:11:06.345Z,8.17
2018-01-28T15:13:34.591Z,6.80
2018-01-28T15:16:02.081Z,7.80
2018-01-28T15:18:30.040Z,4.13
2018-01-28T15:20:57.510Z,5.67
2018-01-28T15:23:25.742Z,6.27
2018-01-28T15:25:53.226Z,5.63
2018-01-28T15:28:20.699Z,5.90
2018-01-28T15:30:49.551Z,5.20
2018-01-28T15:33:17.027Z,3.93
2018-01-28T15:35:44.516Z,4.70
2018-01-28T15:38:12.751Z,4.10
2018-01-28T15:40:40.214Z,3.50
2018-01-28T15:43:07.786Z,5.10
2018-01-28T15:45:35.715Z,4.93
2018-01-28T15:48:03.202Z,4.50
2018-01-28T15:50:30.723Z,5.47
2018-01-28T15:52:58.209Z,4.47
2018-01-28T15:55:25.684Z,4.50
2018-01-28T15:57:53.142Z,4.70
2018-01-28T16:00:20.617Z,4.73
2018-01-28T16:02:48.842Z,4.77
2018-01-28T16:05:16.440Z,4.60
2018-01-28T16:07:44.683Z,5.87
2018-01-28T16:10:12.142Z,5.17
2018-01-28T16:12:39.634Z,5.70
2018-01-28T16:15:07.872Z,5.57
2018-01-28T16:17:35.346Z,5.30
2018-01-28T16:20:02.807Z,5.17
2018-01-28T16:22:30.339Z,4.83
2018-01-28T16:24:58.718Z,6.20
2018-01-28T16:27:26.197Z,5.57
2018-01-28T16:29:53.750Z,5.60
2018-01-28T16:32:21.307Z,6.50
2018-01-28T16:34:48.774Z,4.60
2018-01-28T16:37:16.285Z,4.73
2018-01-28T16:39:44.481Z,5.53
2018-01-28T16:42:11.958Z,5.70
2018-01-28T16:44:40.039Z,5.83
2018-01-28T16:47:08.078Z,5.80
2018-01-28T16:49:36.558Z,5.10
2018-01-28T16:52:04.040Z,5.90
2018-01-28T16:54:31.511Z,5.80
2018-01-28T16:56:59.751Z,4.70
2018-01-28T16:59:27.223Z,6.70
2018-01-28T17:01:54.718Z,6.40
2018-01-28T17:04:22.234Z,5.60
2018-01-28T17:06:49.714Z,5.63
2018-01-28T17:09:17.945Z,5.70
2018-01-28T17:11:45.401Z,6.30
2018-01-28T17:14:13.278Z,6.47
2018-01-28T17:16:41.681Z,7.23
2018-01-28T17:19:09.090Z,6.47
2018-01-28T17:21:37.567Z,6.93
2018-01-28T17:24:05.051Z,9.10
2018-01-28T17:26:32.510Z,6.40
2018-01-28T17:28:59.987Z,7.20
2018-01-28T17:31:27.451Z,6.87
2018-01-28T17:33:55.674Z,7.50
2018-01-28T17:36:23.179Z,7.57
2018-01-28T17:38:50.731Z,7.30
2018-01-28T17:41:18.203Z,6.80
2018-01-28T17:43:46.446Z,7.83
2018-01-28T17:46:13.911Z,6.57
2018-01-28T17:48:41.415Z,8.50
2018-01-28T17:51:08.899Z,7.10
2018-01-28T17:53:36.354Z,8.37
2018-01-28T17:56:03.851Z,7.67
2018-01-28T17:58:31.514Z,6.30
2018-01-28T18:00:58.998Z,7.37
2018-01-28T18:03:26.518Z,6.63
2018-01-28T18:05:53.994Z,6.93
2018-01-28T18:08:22.214Z,7.00
2018-01-28T18:10:49.678Z,7.33
2018-01-28T18:13:17.170Z,8.30
2018-01-28T18:15:44.621Z,7.33
2018-01-28T18:18:12.097Z,7.80
2018-01-28T18:20:40.338Z,7.27
2018-01-28T18:23:07.818Z,7.17
2018-01-28T18:25:35.277Z,7.70
2018-01-28T18:28:02.826Z,7.80
2018-01-28T18:30:30.746Z,7.33
2018-01-28T18:32:58.194Z,7.40
2018-01-28T18:35:25.682Z,7.50
2018-01-28T18:37:53.145Z,9.07
2018-01-28T18:40:20.603Z,7.70
2018-01-28T18:42:48.189Z,7.77
2018-01-28T18:45:15.748Z,6.90
2018-01-28T18:47:44.749Z,6.07
2018-01-28T18:50:12.991Z,8.10
2018-01-28T18:52:40.462Z,7.93
2018-01-28T18:55:07.923Z,7.47
2018-01-28T18:57:35.403Z,7.33
2018-01-28T19:00:03.636Z,7.27
2018-01-28T19:02:31.719Z,7.93
2018-01-28T19:04:59.287Z,8.13
2018-01-28T19:07:26.747Z,7.63
2018-01-28T19:09:54.590Z,6.57
2018-01-28T19:12:22.088Z,6.93
2018-01-28T19:14:50.364Z,5.50
2018-01-28T19:17:18.611Z,7.13
2018-01-28T19:19:46.106Z,6.20
2018-01-28T19:22:14.349Z,5.53
2018-01-28T19:24:42.402Z,6.20
2018-01-28T19:27:09.883Z,7.80
2018-01-28T19:29:37.358Z,5.50
2018-01-28T19:32:06.231Z,4.80
2018-01-28T19:34:33.701Z,5.27
2018-01-28T19:37:01.934Z,4.80
2018-01-28T19:39:29.445Z,5.37
2018-01-28T19:41:56.949Z,4.60
2018-01-28T19:44:24.431Z,5.30
2018-01-28T19:46:51.920Z,4.10
2018-01-28T19:49:19.460Z,3.80
2018-01-28T19:51:46.948Z,4.20
2018-01-28T19:54:15.166Z,4.07
2018-01-28T19:56:42.659Z,4.30
2018-01-28T19:59:10.902Z,4.70
2018-01-28T20:01:39.962Z,3.60
2018-01-28T20:04:07.425Z,4.57
2018-01-28T20:06:34.914Z,4.17
2018-01-28T20:09:02.428Z,3.90
2018-01-28T20:11:29.983Z,3.20
2018-01-28T20:13:58.382Z,4.10
2018-01-28T20:16:25.870Z,4.03
2018-01-28T20:18:53.348Z,4.30
2018-01-28T20:21:21.621Z,3.93
2018-01-28T20:23:49.883Z,5.00
2018-01-28T20:26:17.372Z,4.43
2018-01-28T20:28:45.728Z,4.63
2018-01-28T20:31:13.241Z,4.03
2018-01-28T20:33:41.006Z,6.03
2018-01-28T20:36:11.015Z,4.93
2018-01-28T20:38:38.996Z,4.17
2018-01-28T20:41:07.095Z,4.87
2018-01-28T20:43:34.725Z,5.60
2018-01-28T20:46:03.902Z,5.10
2018-01-28T20:48:31.636Z,5.37
2018-01-28T20:51:00.798Z,4.20
2018-01-28T20:53:29.259Z,5.17
2018-01-28T20:55:58.473Z,6.30
2018-01-28T20:58:26.514Z,4.80
2018-01-28T21:00:54.116Z,7.10
2018-01-28T21:03:22.734Z,6.17
2018-01-28T21:05:50.261Z,5.43
2018-01-28T21:08:18.739Z,6.43
2018-01-28T21:10:48.095Z,4.77
2018-01-28T21:13:15.616Z,4.80
2018-01-28T21:15:43.312Z,4.93
2018-01-28T21:18:10.803Z,4.70
2018-01-28T21:20:38.283Z,5.20
2018-01-28T21:23:06.510Z,4.90
2018-01-28T21:25:33.975Z,5.03
2018-01-28T21:28:01.701Z,6.00
2018-01-28T21:30:30.088Z,5.20
2018-01-28T21:32:57.672Z,5.87
2018-01-28T21:35:25.339Z,5.00
2018-01-28T21:37:52.944Z,7.00
2018-01-28T21:40:20.518Z,5.40
2018-01-28T21:42:48.894Z,5.63
2018-01-28T21:45:16.903Z,5.63
2018-01-28T21:47:44.470Z,7.70
2018-01-28T21:50:11.972Z,4.27
2018-01-28T21:52:40.516Z,4.47
2018-01-28T21:55:08.784Z,6.03
2018-01-28T21:57:36.696Z,4.60
2018-01-28T22:00:05.320Z,4.60
2018-01-28T22:02:33.099Z,4.53
2018-01-28T22:05:00.582Z,4.73
2018-01-28T22:07:28.103Z,5.07
2018-01-28T22:09:55.706Z,5.63
2018-01-28T22:12:23.498Z,5.97
2018-01-28T22:14:51.113Z,6.00
2018-01-28T22:17:18.662Z,6.07
2018-01-28T22:19:46.252Z,8.30
2018-01-28T22:22:13.813Z,5.27
2018-01-28T22:24:41.567Z,5.87
2018-01-28T22:27:09.035Z,6.57
2018-01-28T22:29:37.376Z,5.50
2018-01-28T22:32:04.916Z,5.60
2018-01-28T22:34:32.614Z,5.40
2018-01-28T22:37:00.251Z,5.20
2018-01-28T22:39:27.871Z,4.73
2018-01-28T22:41:55.592Z,4.97
2018-01-28T22:44:23.180Z,4.70
2018-01-28T22:46:51.537Z,5.13
2018-01-28T22:49:19.105Z,4.67
2018-01-28T22:51:47.493Z,4.93
2018-01-28T22:54:15.064Z,4.10
2018-01-28T22:56:42.551Z,4.97
2018-01-28T22:59:10.350Z,4.57
2018-01-28T23:01:38.236Z,4.70
2018-01-28T23:04:06.599Z,3.70
2018-01-28T23:06:34.187Z,5.90
2018-01-28T23:09:01.734Z,3.30
2018-01-28T23:11:29.986Z,4.10
2018-01-28T23:13:58.480Z,3.77
2018-01-28T23:16:25.942Z,3.70
2018-01-28T23:18:53.418Z,3.10
2018-01-28T23:21:21.692Z,3.17
2018-01-28T23:23:50.519Z,2.60
2018-01-28T23:26:19.702Z,3.40
2018-01-28T23:28:47.174Z,2.83
2018-01-28T23:31:14.654Z,3.30
2018-01-28T23:33:42.149Z,2.60
2018-01-28T23:36:10.372Z,3.70
2018-01-28T23:38:37.878Z,3.30
2018-01-28T23:41:06.110Z,3.70
2018-01-28T23:43:33.570Z,3.27
2018-01-28T23:46:01.152Z,3.97
2018-01-28T23:48:28.706Z,3.60
2018-01-28T23:50:57.094Z,3.50
2018-01-28T23:53:24.579Z,4.27
2018-01-28T23:55:52.049Z,3.80
2018-01-28T23:58:19.943Z,3.87
